createdAt,value
2022-09-23T00:01:22.457Z,12.05
2022-09-23T00:03:50.376Z,12.68
2022-09-23T00:06:23.593Z,11.75
2022-09-23T00:08:52.373Z,12.27
2022-09-23T00:11:23.282Z,12.13
2022-09-23T00:13:54.627Z,12.40
2022-09-23T00:16:34.242Z,12.43
2022-09-23T00:19:04.317Z,12.93
2022-09-23T00:21:32.390Z,13.30
2022-09-23T00:24:01.171Z,11.98
2022-09-23T00:26:29.049Z,11.88
2022-09-23T00:28:56.975Z,13.15
2022-09-23T00:31:26.215Z,13.02
2022-09-23T00:33:59.308Z,12.38
2022-09-23T00:36:28.606Z,13.38
2022-09-23T00:38:56.628Z,12.10
2022-09-23T00:41:25.848Z,11.48
2022-09-23T00:44:23.341Z,12.63
2022-09-23T00:46:52.123Z,12.52
2022-09-23T00:49:26.725Z,12.90
2022-09-23T00:52:06.812Z,13.02
2022-09-23T00:54:35.272Z,14.65
2022-09-23T00:57:05.365Z,13.20
2022-09-23T00:59:33.644Z,13.77
2022-09-23T01:02:03.521Z,13.73
2022-09-23T01:04:31.672Z,13.15
2022-09-23T01:07:11.206Z,13.45
2022-09-23T01:09:39.248Z,13.02
2022-09-23T01:12:53.530Z,13.82
2022-09-23T01:15:44.586Z,13.68
2022-09-23T01:18:45.196Z,14.00
2022-09-23T01:21:38.665Z,13.02
2022-09-23T01:24:19.603Z,13.80
2022-09-23T01:27:24.117Z,13.02
2022-09-23T01:30:16.690Z,13.07
2022-09-23T01:33:11.252Z,13.55
2022-09-23T01:35:57.159Z,12.77
2022-09-23T01:38:49.934Z,12.77
2022-09-23T01:42:02.267Z,13.32
2022-09-23T01:44:51.456Z,13.50
2022-09-23T01:47:33.209Z,12.30
2022-09-23T01:50:35.702Z,13.55
2022-09-23T01:53:12.951Z,12.77
2022-09-23T01:55:50.250Z,12.95
2022-09-23T01:58:30.598Z,13.88
2022-09-23T02:01:07.520Z,13.45
2022-09-23T02:03:44.575Z,12.85
2022-09-23T02:06:20.514Z,13.68
2022-09-23T02:08:56.588Z,12.88
2022-09-23T02:11:24.681Z,13.52
2022-09-23T02:14:11.275Z,13.52
2022-09-23T02:16:47.579Z,13.65
2022-09-23T02:19:19.473Z,14.50
2022-09-23T02:21:52.868Z,13.45
2022-09-23T02:24:30.203Z,14.40
2022-09-23T02:27:13.308Z,14.55
2022-09-23T02:29:58.893Z,15.38
2022-09-23T02:32:47.706Z,14.75
2022-09-23T02:35:18.136Z,15.65
2022-09-23T02:37:53.233Z,16.73
2022-09-23T02:40:44.327Z,15.93
2022-09-23T02:43:20.178Z,15.93
2022-09-23T02:45:48.734Z,14.63
2022-09-23T02:48:24.300Z,15.30
2022-09-23T02:50:52.524Z,15.18
2022-09-23T02:53:22.441Z,15.02
2022-09-23T02:55:51.046Z,14.18
2022-09-23T02:58:18.950Z,13.45
2022-09-23T03:00:59.097Z,13.73
2022-09-23T03:03:35.708Z,13.30
2022-09-23T03:06:15.154Z,13.98
2022-09-23T03:08:53.314Z,13.60
2022-09-23T03:11:21.819Z,14.30
2022-09-23T03:14:07.375Z,13.75
2022-09-23T03:17:03.414Z,14.35
2022-09-23T03:20:04.425Z,13.52
2022-09-23T03:22:46.691Z,13.27
2022-09-23T03:25:21.397Z,13.57
2022-09-23T03:27:50.329Z,14.35
2022-09-23T03:30:21.704Z,13.65
2022-09-23T03:32:51.483Z,13.77
2022-09-23T03:35:20.815Z,14.20
2022-09-23T03:37:57.193Z,14.13
2022-09-23T03:40:30.600Z,13.80
2022-09-23T03:43:01.359Z,12.90
2022-09-23T03:45:33.982Z,13.68
2022-09-23T03:48:02.971Z,13.00
2022-09-23T03:50:30.939Z,12.88
2022-09-23T03:52:59.343Z,13.55
2022-09-23T03:55:27.174Z,14.00
2022-09-23T03:57:55.725Z,14.57
2022-09-23T04:00:23.556Z,13.57
2022-09-23T04:02:51.323Z,13.85
2022-09-23T04:05:19.270Z,14.23
2022-09-23T04:07:48.093Z,13.90
2022-09-23T04:10:15.742Z,13.95
2022-09-23T04:12:43.609Z,13.82
2022-09-23T04:15:11.907Z,14.38
2022-09-23T04:17:39.736Z,13.07
2022-09-23T04:20:07.922Z,13.95
2022-09-23T04:22:35.578Z,13.50
2022-09-23T04:25:03.475Z,12.70
2022-09-23T04:27:34.290Z,13.77
2022-09-23T04:30:05.552Z,13.80
2022-09-23T04:32:33.860Z,13.20
2022-09-23T04:35:01.549Z,13.63
2022-09-23T04:37:29.461Z,13.50
2022-09-23T04:39:57.516Z,15.02
2022-09-23T04:42:28.064Z,14.02
2022-09-23T04:44:55.659Z,16.08
2022-09-23T04:47:23.513Z,15.95
2022-09-23T04:49:51.068Z,15.85
2022-09-23T04:52:18.858Z,15.38
2022-09-23T04:54:46.925Z,15.63
2022-09-23T04:57:15.067Z,16.10
2022-09-23T04:59:45.258Z,15.43
2022-09-23T05:02:13.121Z,15.07
2022-09-23T05:04:41.785Z,15.00
2022-09-23T05:07:10.508Z,15.32
2022-09-23T05:09:38.538Z,15.85
2022-09-23T05:12:06.471Z,15.63
2022-09-23T05:14:34.045Z,16.00
2022-09-23T05:17:01.789Z,14.98
2022-09-23T05:19:29.498Z,16.65
2022-09-23T05:21:57.198Z,15.35
2022-09-23T05:24:25.143Z,15.60
2022-09-23T05:26:54.194Z,16.17
2022-09-23T05:29:21.791Z,15.60
2022-09-23T05:31:49.714Z,16.05
2022-09-23T05:34:18.695Z,15.88
2022-09-23T05:36:46.300Z,15.57
2022-09-23T05:39:14.125Z,15.32
2022-09-23T05:41:43.439Z,15.45
2022-09-23T05:44:11.369Z,16.98
2022-09-23T05:46:39.528Z,15.32
2022-09-23T05:49:07.454Z,15.10
2022-09-23T05:51:35.967Z,16.80
2022-09-23T05:54:05.460Z,15.15
2022-09-23T05:56:35.156Z,14.52
2022-09-23T05:59:04.330Z,15.05
2022-09-23T06:01:35.588Z,14.85
2022-09-23T06:04:06.052Z,14.65
2022-09-23T06:06:39.425Z,13.45
2022-09-23T06:09:13.959Z,12.63
2022-09-23T06:11:42.851Z,12.45
2022-09-23T06:14:14.635Z,11.75
2022-09-23T06:16:43.213Z,10.27
2022-09-23T06:19:11.303Z,10.02
2022-09-23T06:21:40.857Z,10.98
2022-09-23T06:24:13.084Z,10.32
2022-09-23T06:26:43.509Z,10.52
2022-09-23T06:29:12.226Z,10.63
2022-09-23T06:31:42.037Z,9.75
2022-09-23T06:34:13.874Z,10.50
2022-09-23T06:36:46.081Z,8.80
2022-09-23T06:39:15.874Z,8.82
2022-09-23T06:41:44.736Z,8.55
2022-09-23T06:44:16.396Z,8.57
2022-09-23T06:46:44.449Z,9.02
2022-09-23T06:49:12.983Z,9.10
2022-09-23T06:51:41.221Z,9.13
2022-09-23T06:54:09.018Z,9.73
2022-09-23T06:56:39.488Z,8.70
2022-09-23T06:59:12.983Z,8.35
2022-09-23T07:01:40.736Z,8.15
2022-09-23T07:04:10.662Z,7.65
2022-09-23T07:06:39.092Z,7.20
2022-09-23T07:09:08.047Z,6.82
2022-09-23T07:11:36.158Z,6.63
2022-09-23T07:14:04.024Z,6.00
2022-09-23T07:16:32.861Z,6.47
2022-09-23T07:19:00.729Z,6.10
2022-09-23T07:21:28.382Z,5.13
2022-09-23T07:23:58.094Z,5.20
2022-09-23T07:26:26.682Z,6.25
2022-09-23T07:29:04.692Z,4.30
2022-09-23T07:31:39.644Z,4.80
2022-09-23T07:34:11.663Z,5.03
2022-09-23T07:36:40.921Z,5.30
2022-09-23T07:39:11.554Z,4.50
2022-09-23T07:41:39.852Z,4.30
2022-09-23T07:44:08.779Z,3.17
2022-09-23T07:46:37.321Z,2.90
2022-09-23T07:49:06.014Z,2.97
2022-09-23T07:51:37.020Z,2.30
2022-09-23T07:54:08.378Z,2.45
2022-09-23T07:56:37.496Z,2.28
2022-09-23T07:59:08.913Z,1.70
2022-09-23T08:01:48.383Z,1.85
2022-09-23T08:04:19.196Z,1.42
2022-09-23T08:06:56.366Z,1.10
2022-09-23T08:09:27.636Z,1.20
2022-09-23T08:11:55.871Z,1.05
2022-09-23T08:14:23.575Z,1.30
2022-09-23T08:16:52.289Z,1.17
2022-09-23T08:19:20.879Z,1.20
2022-09-23T08:21:49.901Z,1.40
2022-09-23T08:24:19.846Z,0.82
2022-09-23T08:26:48.550Z,0.90
2022-09-23T08:29:18.052Z,1.08
2022-09-23T08:31:46.033Z,1.20
2022-09-23T08:34:14.323Z,1.25
2022-09-23T08:36:41.985Z,1.10
2022-09-23T08:39:15.334Z,1.40
2022-09-23T08:42:01.910Z,1.30
2022-09-23T08:44:54.291Z,0.95
2022-09-23T08:47:47.213Z,0.80
2022-09-23T08:50:18.128Z,0.90
2022-09-23T08:52:55.199Z,0.90
2022-09-23T08:55:40.608Z,0.77
2022-09-23T09:01:27.865Z,0.90
2022-09-23T09:03:57.210Z,1.30
2022-09-23T09:06:41.871Z,1.00
2022-09-23T09:09:23.387Z,0.98
2022-09-23T09:11:58.119Z,1.33
2022-09-23T09:14:45.806Z,1.30
2022-09-23T09:17:48.463Z,1.33
2022-09-23T09:20:19.075Z,1.02
2022-09-23T09:22:52.791Z,1.60
2022-09-23T09:25:33.423Z,1.20
2022-09-23T09:28:03.537Z,1.05
2022-09-23T09:30:34.768Z,1.55
2022-09-23T09:33:06.799Z,1.63
2022-09-23T09:35:41.339Z,1.33
2022-09-23T09:38:09.107Z,1.63
2022-09-23T09:40:47.217Z,1.38
2022-09-23T09:43:23.484Z,1.35
2022-09-23T09:46:10.996Z,1.30
2022-09-23T09:48:56.351Z,1.40
2022-09-23T09:51:27.713Z,1.50
2022-09-23T09:54:16.206Z,1.85
2022-09-23T09:56:44.935Z,1.55
2022-09-23T09:59:25.592Z,1.40
2022-09-23T10:02:24.591Z,1.60
2022-09-23T10:05:05.986Z,1.50
2022-09-23T10:07:35.504Z,1.65
2022-09-23T10:10:33.189Z,1.23
2022-09-23T10:13:16.062Z,1.40
2022-09-23T10:15:45.442Z,1.00
2022-09-23T10:18:20.281Z,1.23
2022-09-23T10:20:49.145Z,1.23
2022-09-23T10:23:23.594Z,1.38
2022-09-23T10:26:00.172Z,1.50
2022-09-23T10:28:37.872Z,1.50
2022-09-23T10:31:24.493Z,0.98
2022-09-23T10:34:19.985Z,1.20
2022-09-23T10:37:21.361Z,1.65
2022-09-23T10:40:07.906Z,1.45
2022-09-23T10:43:29.712Z,1.30
2022-09-23T10:46:21.846Z,1.20
2022-09-23T10:49:16.895Z,1.30
2022-09-23T10:52:22.275Z,1.65
2022-09-23T10:55:10.764Z,1.45
2022-09-23T10:58:17.498Z,1.63
2022-09-23T11:01:20.589Z,1.52
2022-09-23T11:03:58.525Z,1.30
2022-09-23T11:07:10.206Z,1.20
2022-09-23T11:10:35.297Z,1.30
2022-09-23T11:13:34.902Z,1.30
2022-09-23T11:16:14.457Z,1.40
2022-09-23T11:18:45.155Z,1.45
2022-09-23T11:21:12.946Z,1.48
2022-09-23T11:24:01.731Z,1.00
2022-09-23T11:26:54.108Z,1.40
2022-09-23T11:29:43.999Z,1.60
2022-09-23T11:32:40.275Z,1.70
2022-09-23T11:35:15.157Z,1.30
2022-09-23T11:37:57.232Z,1.80
2022-09-23T11:40:31.707Z,1.52
2022-09-23T11:43:06.329Z,1.30
2022-09-23T11:46:01.084Z,1.25
2022-09-23T11:51:38.127Z,1.50
2022-09-23T11:54:21.175Z,1.40
2022-09-23T11:56:57.319Z,1.33
2022-09-23T12:05:16.637Z,1.50
2022-09-23T12:07:56.716Z,1.40
2022-09-23T12:10:42.580Z,1.50
2022-09-23T12:13:30.946Z,1.30
2022-09-23T12:16:05.739Z,1.42
2022-09-23T12:19:00.991Z,1.30
2022-09-23T12:24:43.960Z,1.70
2022-09-23T12:27:37.976Z,2.20
2022-09-23T12:30:16.587Z,2.38
2022-09-23T12:32:45.049Z,2.17
2022-09-23T12:35:26.966Z,1.92
2022-09-23T12:37:55.708Z,1.80
2022-09-23T12:40:34.146Z,1.77
2022-09-23T12:43:03.267Z,1.60
2022-09-23T12:45:35.013Z,1.33
2022-09-23T12:48:18.242Z,1.42
2022-09-23T12:50:52.034Z,1.25
2022-09-23T12:53:35.304Z,1.35
2022-09-23T12:56:16.114Z,1.90
2022-09-23T12:58:43.901Z,2.30
2022-09-23T13:01:14.912Z,1.85
2022-09-23T13:04:08.892Z,1.83
2022-09-23T13:07:03.772Z,1.55
2022-09-23T13:12:15.796Z,1.50
2022-09-23T13:14:47.187Z,1.30
2022-09-23T13:17:37.087Z,2.00
2022-09-23T13:20:16.703Z,1.30
2022-09-23T13:22:53.395Z,1.65
2022-09-23T13:25:25.094Z,1.60
2022-09-23T13:27:57.701Z,1.80
2022-09-23T13:30:26.947Z,2.25
2022-09-23T13:33:11.065Z,1.90
2022-09-23T13:35:47.205Z,1.70
2022-09-23T13:38:31.938Z,1.60
2022-09-23T13:41:07.745Z,1.60
2022-09-23T13:43:45.231Z,1.50
2022-09-23T13:46:25.238Z,1.80
2022-09-23T13:48:55.361Z,1.85
2022-09-23T13:51:33.030Z,1.35
2022-09-23T13:54:04.106Z,1.23
2022-09-23T13:56:35.263Z,1.30
2022-09-23T13:59:37.203Z,1.52
2022-09-23T14:02:13.075Z,1.58
2022-09-23T14:04:41.361Z,1.40
2022-09-23T14:07:15.543Z,1.70
2022-09-23T14:09:52.209Z,1.73
2022-09-23T14:12:22.302Z,1.48
2022-09-23T14:14:51.901Z,1.50
2022-09-23T14:17:22.989Z,1.63
2022-09-23T14:19:51.686Z,1.90
2022-09-23T14:22:28.240Z,2.20
2022-09-23T14:24:57.334Z,1.70
2022-09-23T14:27:33.253Z,1.85
2022-09-23T14:30:03.556Z,1.80
2022-09-23T14:32:33.292Z,1.98
2022-09-23T14:35:00.948Z,1.40
2022-09-23T14:37:56.472Z,1.30
2022-09-23T14:40:28.824Z,1.40
2022-09-23T14:43:08.805Z,1.90
2022-09-23T14:45:39.855Z,1.45
2022-09-23T14:48:19.339Z,1.45
2022-09-23T14:50:50.476Z,1.25
2022-09-23T14:53:24.296Z,1.35
2022-09-23T14:56:08.298Z,1.20
2022-09-23T14:59:00.663Z,1.13
2022-09-23T15:01:35.519Z,1.02
2022-09-23T15:04:15.635Z,1.20
2022-09-23T15:07:06.786Z,1.40
2022-09-23T15:09:40.685Z,1.15
2022-09-23T15:12:17.106Z,1.40
2022-09-23T15:14:51.242Z,1.42
2022-09-23T15:17:33.849Z,1.20
2022-09-23T15:20:23.993Z,1.27
2022-09-23T15:22:54.305Z,1.30
2022-09-23T15:25:42.591Z,1.60
2022-09-23T15:28:13.140Z,1.50
2022-09-23T15:30:41.260Z,1.25
2022-09-23T15:33:13.930Z,1.52
2022-09-23T15:35:48.517Z,1.38
2022-09-23T15:38:17.631Z,1.60
2022-09-23T15:40:46.230Z,1.67
2022-09-23T15:43:21.409Z,1.85
2022-09-23T15:45:53.086Z,1.80
2022-09-23T15:48:25.240Z,1.52
2022-09-23T15:50:54.335Z,1.60
2022-09-23T15:53:26.330Z,1.50
2022-09-23T15:55:54.512Z,1.70
2022-09-23T15:58:23.603Z,1.80
2022-09-23T16:00:56.210Z,2.10
2022-09-23T16:03:28.645Z,2.40
2022-09-23T16:06:00.080Z,4.00
2022-09-23T16:08:29.546Z,3.10
2022-09-23T16:10:57.537Z,3.50
2022-09-23T16:13:25.210Z,3.28
2022-09-23T16:15:52.946Z,3.35
2022-09-23T16:18:20.542Z,3.72
2022-09-23T16:20:49.423Z,5.05
2022-09-23T16:23:34.347Z,5.75
2022-09-23T16:26:13.898Z,7.32
2022-09-23T16:28:42.216Z,5.97
2022-09-23T16:31:11.861Z,6.00
2022-09-23T16:33:39.864Z,9.05
2022-09-23T16:36:14.257Z,8.55
2022-09-23T16:38:42.230Z,10.27
2022-09-23T16:41:11.300Z,8.60
2022-09-23T16:43:41.983Z,10.15
2022-09-23T16:46:13.348Z,9.90
2022-09-23T16:48:42.207Z,13.18
2022-09-23T16:51:21.138Z,12.05
2022-09-23T16:53:51.065Z,10.35
2022-09-23T16:56:25.703Z,10.25
2022-09-23T16:58:56.228Z,8.95
2022-09-23T17:01:45.740Z,10.20
2022-09-23T17:04:17.034Z,10.50
2022-09-23T17:06:50.390Z,10.82
2022-09-23T17:09:30.176Z,13.18
2022-09-23T17:12:04.267Z,13.60
2022-09-23T17:14:32.129Z,13.68
2022-09-23T17:16:59.839Z,13.20
2022-09-23T17:19:27.546Z,12.75
2022-09-23T17:21:55.309Z,10.90
2022-09-23T17:24:23.027Z,10.05
2022-09-23T17:26:53.273Z,11.10
2022-09-23T17:29:21.598Z,10.52
2022-09-23T17:31:49.203Z,10.38
2022-09-23T17:34:18.755Z,14.70
2022-09-23T17:36:46.845Z,16.90
2022-09-23T17:39:14.442Z,15.68
2022-09-23T17:41:42.050Z,15.88
2022-09-23T17:44:11.516Z,15.25
2022-09-23T17:46:39.167Z,14.20
2022-09-23T17:49:08.392Z,13.73
2022-09-23T17:51:37.241Z,14.30
2022-09-23T17:54:04.965Z,13.90
2022-09-23T17:56:33.935Z,18.90
2022-09-23T17:59:03.568Z,20.40
2022-09-23T18:01:31.932Z,16.95
2022-09-23T18:04:01.611Z,17.30
2022-09-23T18:06:31.820Z,17.77
2022-09-23T18:09:03.599Z,16.63
2022-09-23T18:11:35.040Z,16.27
2022-09-23T18:14:13.065Z,14.98
2022-09-23T18:16:42.706Z,14.52
2022-09-23T18:19:17.206Z,12.30
2022-09-23T18:21:50.658Z,13.15
2022-09-23T18:24:34.863Z,11.45
2022-09-23T18:27:06.488Z,9.18
2022-09-23T18:29:35.095Z,9.73
2022-09-23T18:32:03.803Z,9.48
2022-09-23T18:34:33.220Z,10.23
2022-09-23T18:37:00.866Z,11.30
2022-09-23T18:39:29.273Z,10.68
2022-09-23T18:41:57.025Z,10.55
2022-09-23T18:44:24.969Z,10.32
2022-09-23T18:46:52.865Z,10.45
2022-09-23T18:49:39.521Z,11.35
2022-09-23T18:52:07.374Z,10.70
2022-09-23T18:54:35.225Z,10.40
2022-09-23T18:57:02.763Z,9.98
2022-09-23T18:59:31.755Z,10.10
2022-09-23T19:01:59.910Z,9.75
2022-09-23T19:04:28.131Z,9.63
2022-09-23T19:06:57.808Z,8.80
2022-09-23T19:09:26.717Z,9.90
2022-09-23T19:11:54.466Z,8.90
2022-09-23T19:14:22.673Z,8.98
2022-09-23T19:16:51.037Z,8.25
2022-09-23T19:19:18.754Z,8.10
2022-09-23T19:21:46.518Z,7.55
2022-09-23T19:24:19.692Z,7.93
2022-09-23T19:26:48.526Z,8.18
2022-09-23T19:29:22.001Z,7.80
2022-09-23T19:31:50.861Z,8.30
2022-09-23T19:34:29.108Z,8.40
2022-09-23T19:36:57.791Z,8.68
2022-09-23T19:39:28.360Z,8.65
2022-09-23T19:41:56.172Z,8.98
2022-09-23T19:44:25.537Z,10.13
2022-09-23T19:46:56.914Z,10.32
2022-09-23T19:49:25.559Z,10.77
2022-09-23T19:51:55.438Z,10.63
2022-09-23T19:54:26.870Z,11.25
2022-09-23T19:56:54.764Z,10.38
2022-09-23T19:59:22.388Z,10.82
2022-09-23T20:01:50.320Z,10.43
2022-09-23T20:04:18.072Z,10.30
2022-09-23T20:06:46.348Z,10.85
2022-09-23T20:09:14.411Z,11.38
2022-09-23T20:11:44.084Z,11.20
2022-09-23T20:14:12.957Z,10.30
2022-09-23T20:16:40.945Z,10.80
2022-09-23T20:19:09.857Z,10.65
2022-09-23T20:21:37.658Z,10.43
2022-09-23T20:24:06.999Z,10.20
2022-09-23T20:26:53.377Z,10.02
2022-09-23T20:29:22.211Z,10.07
2022-09-23T20:31:49.971Z,11.05
2022-09-23T20:34:19.588Z,12.57
2022-09-23T20:36:47.403Z,13.70
2022-09-23T20:39:15.181Z,12.35
2022-09-23T20:41:42.836Z,12.43
2022-09-23T20:44:14.180Z,12.20
2022-09-23T20:46:48.488Z,11.27
2022-09-23T20:49:17.806Z,11.55
2022-09-23T20:51:48.737Z,11.25
2022-09-23T20:54:19.085Z,11.60
2022-09-23T20:56:47.719Z,13.13
2022-09-23T20:59:17.898Z,13.52
2022-09-23T21:01:46.743Z,11.40
2022-09-23T21:04:14.796Z,12.68
2022-09-23T21:06:43.006Z,12.65
2022-09-23T21:09:10.772Z,13.63
2022-09-23T21:11:39.002Z,12.77
2022-09-23T21:14:06.852Z,11.85
2022-09-23T21:16:34.745Z,11.88
2022-09-23T21:19:03.866Z,11.30
2022-09-23T21:21:31.828Z,11.73
2022-09-23T21:24:17.197Z,11.63
2022-09-23T21:26:47.836Z,11.38
2022-09-23T21:29:17.084Z,10.98
2022-09-23T21:31:45.349Z,10.10
2022-09-23T21:34:13.416Z,9.82
2022-09-23T21:36:46.243Z,9.15
2022-09-23T21:39:14.523Z,10.43
2022-09-23T21:41:42.374Z,10.27
2022-09-23T21:44:10.099Z,11.00
2022-09-23T21:46:37.990Z,12.40
2022-09-23T21:49:06.193Z,11.10
2022-09-23T21:51:40.701Z,12.32
2022-09-23T21:54:15.940Z,13.15
2022-09-23T21:56:44.759Z,14.50
2022-09-23T21:59:13.105Z,14.93
2022-09-23T22:01:44.413Z,13.80
2022-09-23T22:04:18.545Z,14.52
2022-09-23T22:06:48.826Z,15.43
2022-09-23T22:09:20.991Z,15.63
2022-09-23T22:12:07.639Z,16.95
2022-09-23T22:14:35.682Z,16.30
2022-09-23T22:17:06.743Z,17.20
2022-09-23T22:19:40.316Z,18.65
2022-09-23T22:22:15.148Z,17.98
2022-09-23T22:24:44.865Z,18.42
2022-09-23T22:27:14.495Z,18.75
2022-09-23T22:30:00.856Z,17.40
2022-09-23T22:32:40.805Z,17.30
2022-09-23T22:35:10.809Z,17.45
2022-09-23T22:37:39.093Z,18.00
2022-09-23T22:40:10.400Z,19.70
2022-09-23T22:42:38.756Z,18.70
2022-09-23T22:45:08.952Z,19.13
2022-09-23T22:47:39.114Z,20.73
2022-09-23T22:50:08.895Z,19.50
2022-09-23T22:52:37.797Z,19.50
2022-09-23T22:55:08.073Z,18.92
2022-09-23T22:57:36.668Z,19.00
2022-09-23T23:00:06.514Z,18.38
2022-09-23T23:02:34.206Z,18.10
2022-09-23T23:05:02.239Z,19.70
2022-09-23T23:07:30.202Z,17.95
2022-09-23T23:09:58.187Z,18.48
2022-09-23T23:12:26.087Z,18.15
2022-09-23T23:14:53.764Z,17.35
2022-09-23T23:17:21.780Z,18.70
2022-09-23T23:19:50.883Z,19.20
2022-09-23T23:22:18.505Z,21.60
2022-09-23T23:24:46.785Z,20.65
2022-09-23T23:27:14.688Z,21.25
2022-09-23T23:29:42.251Z,20.95
2022-09-23T23:32:09.921Z,22.75
2022-09-23T23:34:37.712Z,22.73
2022-09-23T23:37:05.438Z,24.27
2022-09-23T23:39:34.792Z,25.70
2022-09-23T23:42:04.798Z,26.20
2022-09-23T23:44:34.467Z,26.30
2022-09-23T23:47:02.512Z,26.85
2022-09-23T23:49:30.473Z,25.30
2022-09-23T23:51:58.234Z,25.75
2022-09-23T23:54:25.819Z,27.17
2022-09-23T23:56:53.675Z,26.02
2022-09-23T23:59:21.862Z,25.63
